createdAt,value
2022-09-15T14:07:26.241Z,941.80
2022-09-15T14:07:36.188Z,941.80
2022-09-15T14:07:47.745Z,941.80
2022-09-15T14:07:57.869Z,941.80
2022-09-15T14:08:06.188Z,941.81
2022-09-15T14:08:16.191Z,941.81
2022-09-15T14:08:26.191Z,941.81
2022-09-15T14:08:36.190Z,941.81
2022-09-15T14:08:46.249Z,941.81
2022-09-15T14:08:56.192Z,941.80
2022-09-15T14:09:06.210Z,941.81
2022-09-15T14:09:16.193Z,941.81
2022-09-15T14:09:26.195Z,941.81
2022-09-15T14:09:44.187Z,941.81
2022-09-15T14:09:46.194Z,941.81
2022-09-15T14:09:56.191Z,941.82
2022-09-15T14:10:06.209Z,941.80
2022-09-15T14:10:16.190Z,941.81
2022-09-15T14:10:26.187Z,941.82
2022-09-15T14:10:36.189Z,941.82
2022-09-15T14:10:46.190Z,941.81
2022-09-15T14:10:56.193Z,941.82
2022-09-15T14:11:06.184Z,941.81
2022-09-15T14:11:16.216Z,941.81
2022-09-15T14:11:26.184Z,941.81
2022-09-15T14:11:36.180Z,941.81
2022-09-15T14:11:46.190Z,941.81
2022-09-15T14:11:56.188Z,941.81
2022-09-15T14:12:06.217Z,941.81
2022-09-15T14:12:16.176Z,941.81
2022-09-15T14:12:26.182Z,941.81
2022-09-15T14:12:36.267Z,941.80
2022-09-15T14:12:46.175Z,941.81
2022-09-15T14:15:16.515Z,941.73
2022-09-15T14:15:26.507Z,941.71
2022-09-15T14:15:36.504Z,941.71
2022-09-15T14:15:46.532Z,941.71
2022-09-15T14:15:56.504Z,941.70
2022-09-15T14:16:10.486Z,941.70
2022-09-15T14:16:17.530Z,941.70
2022-09-15T14:16:26.536Z,941.70
2022-09-15T14:16:36.576Z,941.69
2022-09-15T14:16:46.544Z,941.68
2022-09-15T14:16:56.595Z,941.69
2022-09-15T14:17:06.569Z,941.70
2022-09-15T14:17:16.509Z,941.70
2022-09-15T14:17:26.511Z,941.70
2022-09-15T14:17:36.514Z,941.71
2022-09-15T14:17:46.512Z,941.71
2022-09-15T14:17:56.512Z,941.71
2022-09-15T14:18:06.516Z,941.71
2022-09-15T14:18:16.516Z,941.72
2022-09-15T14:18:26.515Z,941.72
2022-09-15T14:18:36.519Z,941.72
2022-09-15T14:18:46.525Z,941.72
2022-09-15T14:18:56.519Z,941.72
2022-09-15T14:19:06.520Z,941.73
2022-09-15T14:19:16.525Z,941.73
2022-09-15T14:19:26.520Z,941.73
2022-09-15T14:19:36.526Z,941.72
2022-09-15T14:19:46.524Z,941.72
2022-09-15T14:19:56.523Z,941.72
2022-09-15T14:20:06.525Z,941.72
2022-09-15T14:20:16.529Z,941.72
2022-09-15T14:20:26.528Z,941.72
2022-09-15T14:20:36.530Z,941.72
2022-09-15T14:20:46.531Z,941.72
2022-09-15T14:20:56.534Z,941.72
2022-09-15T14:21:06.536Z,941.72
2022-09-15T14:21:16.535Z,941.72
2022-09-15T14:21:26.533Z,941.72
2022-09-15T14:21:36.535Z,941.72
2022-09-15T14:21:46.547Z,941.72
2022-09-15T14:21:58.684Z,941.71
2022-09-15T14:22:06.541Z,941.71
2022-09-15T14:22:16.540Z,941.70
2022-09-15T14:22:26.541Z,941.70
2022-09-15T14:22:36.542Z,941.69
2022-09-15T14:22:46.541Z,941.69
2022-09-15T14:22:56.540Z,941.69
2022-09-15T14:23:06.542Z,941.69
2022-09-15T14:23:16.549Z,941.67
2022-09-15T14:23:26.541Z,941.67
2022-09-15T14:23:36.541Z,941.66
2022-09-15T14:23:46.544Z,941.68
2022-09-15T14:23:56.545Z,941.68
2022-09-15T14:24:06.545Z,941.69
2022-09-15T14:24:16.551Z,941.69
2022-09-15T14:24:26.551Z,941.69
2022-09-15T14:24:36.550Z,941.70
2022-09-15T14:24:46.553Z,941.70
2022-09-15T14:24:56.557Z,941.70
2022-09-15T14:25:06.573Z,941.70
2022-09-15T14:25:16.569Z,941.70
2022-09-15T14:25:26.558Z,941.70
2022-09-15T14:25:36.556Z,941.71
2022-09-15T14:25:46.564Z,941.72
2022-09-15T14:25:56.558Z,941.71
2022-09-15T14:26:06.560Z,941.71
2022-09-15T14:26:16.561Z,941.72
2022-09-15T14:26:26.566Z,941.72
2022-09-15T14:26:36.562Z,941.73
2022-09-15T14:26:46.563Z,941.71
2022-09-15T14:26:56.565Z,941.72
2022-09-15T14:27:06.567Z,941.73
2022-09-15T14:27:16.568Z,941.72
2022-09-15T14:27:26.568Z,941.72
2022-09-15T14:27:36.579Z,941.71
2022-09-15T14:27:46.603Z,941.72
2022-09-15T14:27:56.569Z,941.73
2022-09-15T14:28:06.571Z,941.73
2022-09-15T14:28:16.573Z,941.73
2022-09-15T14:28:31.335Z,941.73
2022-09-15T14:28:37.574Z,941.73
2022-09-15T14:28:46.577Z,941.73
2022-09-15T14:28:56.576Z,941.73
2022-09-15T14:29:06.579Z,941.74
2022-09-15T14:29:16.596Z,941.74
2022-09-15T14:29:26.581Z,941.74
2022-09-15T14:29:36.581Z,941.75
2022-09-15T14:29:46.589Z,941.74
2022-09-15T14:29:56.582Z,941.73
2022-09-15T14:30:06.634Z,941.74
2022-09-15T14:30:16.586Z,941.73
2022-09-15T14:30:26.598Z,941.73
2022-09-15T14:30:36.587Z,941.73
2022-09-15T14:30:46.591Z,941.74
2022-09-15T14:30:56.587Z,941.73
2022-09-15T14:31:06.592Z,941.74
2022-09-15T14:31:16.619Z,941.73
2022-09-15T14:31:26.638Z,941.73
2022-09-15T14:31:36.625Z,941.74
2022-09-15T14:31:46.699Z,941.74
2022-09-15T14:31:56.656Z,941.74
2022-09-15T14:32:06.645Z,941.74
2022-09-15T14:32:16.596Z,941.74
2022-09-15T14:32:26.597Z,941.74
2022-09-15T14:32:36.598Z,941.75
2022-09-15T14:32:46.601Z,941.75
2022-09-15T14:32:56.599Z,941.76
2022-09-15T14:33:06.600Z,941.77
2022-09-15T14:33:16.602Z,941.76
2022-09-15T14:33:26.602Z,941.76
2022-09-15T14:33:38.064Z,941.74
2022-09-15T14:33:46.608Z,941.74
2022-09-15T14:33:56.603Z,941.75
2022-09-15T14:34:06.604Z,941.74
2022-09-15T14:34:16.624Z,941.74
2022-09-15T14:34:26.626Z,941.75
2022-09-15T14:34:36.633Z,941.76
2022-09-15T14:34:56.607Z,941.76
2022-09-15T14:35:06.609Z,941.76
2022-09-15T14:35:18.983Z,941.76
2022-09-15T14:35:26.611Z,941.76
2022-09-15T14:35:36.613Z,941.76
2022-09-15T14:35:46.615Z,941.76
2022-09-15T14:35:56.615Z,941.76
2022-09-15T14:36:06.627Z,941.75
2022-09-15T14:36:16.615Z,941.75
2022-09-15T14:36:26.616Z,941.74
2022-09-15T14:36:36.623Z,941.74
2022-09-15T14:36:46.617Z,941.74
2022-09-15T14:36:56.617Z,941.75
2022-09-15T14:37:06.617Z,941.75
2022-09-15T14:37:16.638Z,941.75
2022-09-15T14:37:26.622Z,941.75
2022-09-15T14:37:36.624Z,941.74
2022-09-15T14:37:46.621Z,941.74
2022-09-15T14:37:56.624Z,941.73
2022-09-15T14:38:06.630Z,941.73
2022-09-15T14:38:16.623Z,941.73
2022-09-15T14:38:26.627Z,941.73
2022-09-15T14:38:36.627Z,941.73
2022-09-15T14:38:46.627Z,941.74
2022-09-15T14:38:56.629Z,941.74
2022-09-15T14:39:06.630Z,941.74
2022-09-15T14:39:16.642Z,941.74
2022-09-15T14:39:26.631Z,941.74
2022-09-15T14:39:36.630Z,941.74
2022-09-15T14:39:46.664Z,941.74
2022-09-15T14:39:56.857Z,941.74
2022-09-15T14:40:06.727Z,941.75
2022-09-15T14:40:16.743Z,941.74
2022-09-15T14:40:26.690Z,941.74
2022-09-15T14:40:36.707Z,941.74
2022-09-15T14:40:46.684Z,941.75
2022-09-15T14:40:56.639Z,941.76
2022-09-15T14:41:06.638Z,941.77
2022-09-15T14:41:16.643Z,941.77
2022-09-15T14:41:26.640Z,941.78
2022-09-15T14:41:36.638Z,941.79
2022-09-15T14:41:46.705Z,941.80
2022-09-15T14:41:56.719Z,941.79
2022-09-15T14:42:06.645Z,941.80
2022-09-15T14:42:18.940Z,941.80
2022-09-15T14:42:26.665Z,941.79
2022-09-15T14:42:36.648Z,941.78
2022-09-15T14:42:46.646Z,941.79
2022-09-15T14:42:56.657Z,941.78
2022-09-15T14:43:06.652Z,941.77
2022-09-15T14:43:19.423Z,941.77
2022-09-15T14:43:26.652Z,941.76
2022-09-15T14:43:36.672Z,941.77
2022-09-15T14:43:46.653Z,941.78
2022-09-15T14:43:56.653Z,941.79
2022-09-15T14:44:06.668Z,941.80
2022-09-15T14:45:52.231Z,941.81
2022-09-15T14:45:53.851Z,941.82
2022-09-15T14:45:57.894Z,941.81
2022-09-15T14:46:03.713Z,941.82
2022-09-15T14:46:09.081Z,941.82
2022-09-15T14:46:16.664Z,941.84
2022-09-15T14:46:26.667Z,941.85
2022-09-15T14:46:36.670Z,941.85
2022-09-15T14:46:46.670Z,941.85
2022-09-15T14:46:56.666Z,941.85
2022-09-15T14:47:06.669Z,941.84
2022-09-15T14:47:16.668Z,941.84
2022-09-15T14:47:26.671Z,941.83
2022-09-15T14:47:36.670Z,941.84
2022-09-15T14:47:46.686Z,941.83
2022-09-15T14:47:56.673Z,941.84
2022-09-15T14:48:06.675Z,941.83
2022-09-15T14:48:16.676Z,941.84
2022-09-15T14:48:26.676Z,941.84
2022-09-15T14:48:36.677Z,941.83
2022-09-15T14:48:46.679Z,941.84
2022-09-15T14:48:56.677Z,941.84
2022-09-15T14:49:06.678Z,941.84
2022-09-15T14:49:16.693Z,941.84
2022-09-15T14:49:26.679Z,941.84
2022-09-15T14:49:36.681Z,941.85
2022-09-15T14:49:46.683Z,941.84
2022-09-15T14:49:56.780Z,941.84
2022-09-15T14:50:06.688Z,941.83
2022-09-15T14:50:16.685Z,941.83
2022-09-15T14:50:30.357Z,941.83
2022-09-15T14:50:37.688Z,941.84
2022-09-15T14:50:46.691Z,941.84
2022-09-15T14:50:56.689Z,941.85
2022-09-15T14:51:06.693Z,941.84
2022-09-15T14:51:16.691Z,941.84
2022-09-15T14:51:26.691Z,941.83
2022-09-15T14:51:36.693Z,941.83
2022-09-15T14:51:46.710Z,941.82
2022-09-15T14:51:56.695Z,941.82
2022-09-15T14:52:06.695Z,941.82
2022-09-15T14:52:16.695Z,941.81
2022-09-15T14:52:26.699Z,941.81
2022-09-15T14:52:36.703Z,941.81
2022-09-15T14:52:46.697Z,941.81
2022-09-15T14:52:56.701Z,941.80
2022-09-15T14:53:06.699Z,941.80
2022-09-15T14:53:16.702Z,941.80
2022-09-15T14:53:26.706Z,941.80
2022-09-15T14:53:36.702Z,941.79
2022-09-15T14:53:46.705Z,941.79
2022-09-15T14:53:56.713Z,941.79
2022-09-15T14:54:06.706Z,941.79
2022-09-15T14:54:16.726Z,941.79
2022-09-15T14:54:26.710Z,941.79
2022-09-15T14:54:36.709Z,941.79
2022-09-15T14:54:46.709Z,941.79
2022-09-15T14:54:56.711Z,941.79
2022-09-15T14:55:06.712Z,941.79
2022-09-15T14:55:16.710Z,941.79
2022-09-15T14:55:26.709Z,941.79
2022-09-15T14:55:36.711Z,941.79
2022-09-15T14:55:46.712Z,941.79
2022-09-15T14:55:56.713Z,941.79
2022-09-15T14:56:08.583Z,941.80
2022-09-15T14:56:16.708Z,941.80
2022-09-15T14:56:26.715Z,941.80
2022-09-15T14:56:36.716Z,941.79
2022-09-15T14:56:46.718Z,941.79
2022-09-15T14:56:56.722Z,941.79
2022-09-15T14:57:06.720Z,941.79
2022-09-15T14:57:16.722Z,941.78
2022-09-15T14:57:30.838Z,941.78
2022-09-15T14:57:36.828Z,941.79
2022-09-15T14:57:46.727Z,941.76
2022-09-15T14:57:56.724Z,941.79
2022-09-15T14:58:06.727Z,941.79
2022-09-15T14:58:16.726Z,941.78
2022-09-15T14:58:26.726Z,941.78
2022-09-15T14:58:36.728Z,941.78
2022-09-15T14:58:46.727Z,941.78
2022-09-15T14:58:56.726Z,941.78
2022-09-15T14:59:06.729Z,941.79
2022-09-15T14:59:16.776Z,941.78
2022-09-15T14:59:26.729Z,941.78
2022-09-15T14:59:36.728Z,941.77
2022-09-15T14:59:46.729Z,941.78
2022-09-15T14:59:56.788Z,941.78
2022-09-15T15:00:06.731Z,941.77
2022-09-15T15:00:16.738Z,941.76
2022-09-15T15:00:26.767Z,941.77
2022-09-15T15:00:36.772Z,941.77
2022-09-15T15:00:46.781Z,941.77
2022-09-15T15:00:56.759Z,941.78
2022-09-15T15:01:06.776Z,941.79
2022-09-15T15:01:16.901Z,941.80
2022-09-15T15:01:26.820Z,941.79
2022-09-15T15:01:36.739Z,941.80
2022-09-15T15:01:46.768Z,941.81
2022-09-15T15:01:56.774Z,941.81
2022-09-15T15:02:06.870Z,941.82
2022-09-15T15:02:16.822Z,941.82
2022-09-15T15:02:26.816Z,941.82
2022-09-15T15:02:36.800Z,941.83
2022-09-15T15:02:46.753Z,941.82
2022-09-15T15:02:56.749Z,941.82
2022-09-15T15:03:06.752Z,941.82
2022-09-15T15:03:18.306Z,941.82
2022-09-15T15:03:26.764Z,941.82
2022-09-15T15:03:36.749Z,941.82
2022-09-15T15:03:46.756Z,941.81
2022-09-15T15:03:56.754Z,941.80
2022-09-15T15:04:06.752Z,941.81
2022-09-15T15:04:16.760Z,941.82
2022-09-15T15:04:26.760Z,941.82
2022-09-15T15:04:36.757Z,941.82
2022-09-15T15:04:46.759Z,941.82
2022-09-15T15:04:56.760Z,941.81
2022-09-15T15:05:06.760Z,941.82
2022-09-15T15:05:16.761Z,941.82
2022-09-15T15:05:26.762Z,941.83
2022-09-15T15:05:36.819Z,941.82
2022-09-15T15:05:46.764Z,941.82
2022-09-15T15:06:02.850Z,941.83
2022-09-15T15:06:28.534Z,941.83
2022-09-15T15:06:29.663Z,941.81
2022-09-15T15:06:33.057Z,941.81
2022-09-15T15:06:36.764Z,941.81
2022-09-15T15:06:46.765Z,941.80
2022-09-15T15:06:56.770Z,941.80
2022-09-15T15:07:06.769Z,941.81
2022-09-15T15:07:16.769Z,941.82
2022-09-15T15:07:26.768Z,941.82
2022-09-15T15:07:36.773Z,941.82
2022-09-15T15:07:46.770Z,941.82
2022-09-15T15:07:56.771Z,941.82
2022-09-15T15:08:06.771Z,941.82
2022-09-15T15:08:16.773Z,941.82
2022-09-15T15:08:26.773Z,941.81
2022-09-15T15:08:36.772Z,941.82
2022-09-15T15:08:46.774Z,941.82
2022-09-15T15:08:56.775Z,941.82
2022-09-15T15:09:06.775Z,941.82
2022-09-15T15:09:16.778Z,941.82
2022-09-15T15:09:26.779Z,941.82
2022-09-15T15:09:36.779Z,941.82
2022-09-15T15:09:46.778Z,941.83
2022-09-15T15:09:56.813Z,941.83
2022-09-15T15:10:06.785Z,941.82
2022-09-15T15:10:16.786Z,941.82
2022-09-15T15:10:26.797Z,941.83
2022-09-15T15:10:36.787Z,941.83
2022-09-15T15:10:46.787Z,941.82
2022-09-15T15:10:56.792Z,941.82
2022-09-15T15:11:06.790Z,941.82
2022-09-15T15:11:16.790Z,941.82
2022-09-15T15:11:26.789Z,941.82
2022-09-15T15:11:36.791Z,941.82
2022-09-15T15:11:46.793Z,941.82
2022-09-15T15:11:56.791Z,941.81
2022-09-15T15:12:06.797Z,941.81
2022-09-15T15:12:16.794Z,941.81
2022-09-15T15:12:26.804Z,941.81
2022-09-15T15:12:36.793Z,941.82
2022-09-15T15:12:46.796Z,941.82
2022-09-15T15:12:56.796Z,941.81
2022-09-15T15:13:06.797Z,941.79
2022-09-15T15:13:16.800Z,941.81
2022-09-15T15:13:26.799Z,941.81
2022-09-15T15:13:36.800Z,941.81
2022-09-15T15:13:46.809Z,941.81
2022-09-15T15:13:56.808Z,941.81
2022-09-15T15:14:06.801Z,941.80
2022-09-15T15:14:16.848Z,941.80
2022-09-15T15:14:26.811Z,941.80
2022-09-15T15:14:36.816Z,941.79
2022-09-15T15:14:46.806Z,941.80
2022-09-15T15:14:56.874Z,941.80
2022-09-15T15:15:06.805Z,941.80
2022-09-15T15:15:16.807Z,941.80
2022-09-15T15:15:26.810Z,941.80
2022-09-15T15:15:36.813Z,941.81
2022-09-15T15:15:46.809Z,941.81
2022-09-15T15:15:56.829Z,941.81
2022-09-15T15:16:06.888Z,941.80
2022-09-15T15:16:16.841Z,941.80
2022-09-15T15:16:26.885Z,941.81
2022-09-15T15:16:36.850Z,941.81
2022-09-15T15:16:46.855Z,941.81
2022-09-15T15:16:56.908Z,941.82
2022-09-15T15:17:06.948Z,941.81
2022-09-15T15:17:16.815Z,941.81
2022-09-15T15:17:26.816Z,941.81
2022-09-15T15:17:36.860Z,941.80
2022-09-15T15:17:46.818Z,941.80
2022-09-15T15:17:56.832Z,941.80
2022-09-15T15:18:06.818Z,941.80
2022-09-15T15:18:16.819Z,941.81
2022-09-15T15:18:31.005Z,941.80
2022-09-15T15:18:37.821Z,941.80
2022-09-15T15:18:46.820Z,941.80
2022-09-15T15:18:56.824Z,941.79
2022-09-15T15:19:06.824Z,941.79
2022-09-15T15:19:16.827Z,941.79
2022-09-15T15:19:26.835Z,941.79
2022-09-15T15:19:36.827Z,941.79
2022-09-15T15:19:46.828Z,941.80
2022-09-15T15:19:56.862Z,941.80
2022-09-15T15:20:06.829Z,941.79
2022-09-15T15:20:16.829Z,941.79
2022-09-15T15:20:26.834Z,941.79
2022-09-15T15:20:36.833Z,941.80
2022-09-15T15:20:46.837Z,941.79
2022-09-15T15:20:56.834Z,941.78
2022-09-15T15:21:06.837Z,941.77
2022-09-15T15:21:16.838Z,941.77
2022-09-15T15:21:26.839Z,941.77
2022-09-15T15:21:36.840Z,941.77
2022-09-15T15:21:46.839Z,941.78
2022-09-15T15:21:56.842Z,941.75
2022-09-15T15:22:06.843Z,941.76
2022-09-15T15:22:16.844Z,941.76
2022-09-15T15:22:26.846Z,941.76
2022-09-15T15:22:36.846Z,941.75
2022-09-15T15:22:46.848Z,941.76
2022-09-15T15:22:56.847Z,941.76
2022-09-15T15:23:06.861Z,941.76
2022-09-15T15:23:16.856Z,941.77
2022-09-15T15:23:26.854Z,941.76
2022-09-15T15:23:36.852Z,941.76
2022-09-15T15:23:47.232Z,941.77
2022-09-15T15:23:57.219Z,941.76
2022-09-15T15:24:06.854Z,941.77
2022-09-15T15:24:16.855Z,941.76
2022-09-15T15:24:26.866Z,941.76
2022-09-15T15:24:36.857Z,941.76
2022-09-15T15:24:46.857Z,941.76
2022-09-15T15:24:56.859Z,941.76
2022-09-15T15:25:06.861Z,941.75
2022-09-15T15:25:16.861Z,941.75
2022-09-15T15:25:26.862Z,941.75
2022-09-15T15:25:36.862Z,941.74
2022-09-15T15:25:46.865Z,941.74
2022-09-15T15:25:56.867Z,941.74
2022-09-15T15:26:06.868Z,941.73
2022-09-15T15:26:16.868Z,941.73
2022-09-15T15:26:26.868Z,941.73
2022-09-15T15:26:36.866Z,941.73
2022-09-15T15:26:46.867Z,941.74
2022-09-15T15:26:56.870Z,941.74
2022-09-15T15:27:06.870Z,941.73
2022-09-15T15:27:16.871Z,941.72
2022-09-15T15:27:26.872Z,941.71
2022-09-15T15:27:36.874Z,941.71
2022-09-15T15:27:46.876Z,941.71
2022-09-15T15:27:56.878Z,941.70
2022-09-15T15:28:06.878Z,941.70
2022-09-15T15:28:16.880Z,941.70
2022-09-15T15:28:26.880Z,941.70
2022-09-15T15:28:36.882Z,941.70
2022-09-15T15:28:46.884Z,941.71
2022-09-15T15:28:56.882Z,941.71
2022-09-15T15:29:06.887Z,941.70
2022-09-15T15:29:16.893Z,941.71
2022-09-15T15:29:26.890Z,941.70
2022-09-15T15:29:36.886Z,941.70
2022-09-15T15:29:46.889Z,941.70
2022-09-15T15:29:56.890Z,941.70
2022-09-15T15:30:06.895Z,941.70
2022-09-15T15:30:16.891Z,941.71
2022-09-15T15:30:26.892Z,941.70
2022-09-15T15:30:36.891Z,941.71
2022-09-15T15:30:46.893Z,941.71
2022-09-15T15:30:56.893Z,941.71
2022-09-15T15:31:06.893Z,941.71
2022-09-15T15:31:16.924Z,941.70
2022-09-15T15:31:26.971Z,941.71
2022-09-15T15:31:36.943Z,941.70
2022-09-15T15:31:46.956Z,941.71
2022-09-15T15:31:56.967Z,941.71
2022-09-15T15:32:06.965Z,941.72
2022-09-15T15:32:16.904Z,941.72
2022-09-15T15:32:26.901Z,941.72
2022-09-15T15:32:36.970Z,941.73
2022-09-15T15:32:46.904Z,941.74
2022-09-15T15:32:56.904Z,941.74
2022-09-15T15:33:06.904Z,941.74
2022-09-15T15:33:19.546Z,941.74
2022-09-15T15:33:26.905Z,941.75
2022-09-15T15:33:36.905Z,941.74
2022-09-15T15:33:46.909Z,941.75
2022-09-15T15:33:56.919Z,941.75
2022-09-15T15:34:06.914Z,941.75
2022-09-15T15:34:16.913Z,941.75
2022-09-15T15:34:26.915Z,941.75
2022-09-15T15:34:36.918Z,941.75
2022-09-15T15:34:46.914Z,941.75
2022-09-15T15:34:56.920Z,941.75
2022-09-15T15:35:06.916Z,941.74
2022-09-15T15:35:16.916Z,941.74
2022-09-15T15:35:26.919Z,941.74
2022-09-15T15:35:36.922Z,941.73
2022-09-15T15:35:46.923Z,941.73
2022-09-15T15:35:56.917Z,941.74
2022-09-15T15:36:06.917Z,941.74
2022-09-15T15:36:16.920Z,941.74
2022-09-15T15:36:26.921Z,941.75
2022-09-15T15:36:36.920Z,941.76
2022-09-15T15:36:46.921Z,941.76
2022-09-15T15:36:56.921Z,941.77
2022-09-15T15:37:06.924Z,941.77
2022-09-15T15:37:16.925Z,941.77
2022-09-15T15:37:26.926Z,941.77
2022-09-15T15:37:36.931Z,941.77
2022-09-15T15:37:46.930Z,941.77
2022-09-15T15:37:56.929Z,941.77
2022-09-15T15:38:06.931Z,941.77
2022-09-15T15:38:16.941Z,941.78
2022-09-15T15:38:26.930Z,941.78
2022-09-15T15:38:36.930Z,941.78
2022-09-15T15:38:47.637Z,941.79
2022-09-15T15:38:57.118Z,941.80
2022-09-15T15:39:06.936Z,941.80
2022-09-15T15:39:16.935Z,941.80
2022-09-15T15:39:26.941Z,941.79
2022-09-15T15:39:36.936Z,941.79
2022-09-15T15:39:46.989Z,941.79
2022-09-15T15:39:57.190Z,941.79
2022-09-15T15:40:06.982Z,941.78
2022-09-15T15:40:17.014Z,941.78
2022-09-15T15:40:27.001Z,941.78
2022-09-15T15:40:37.012Z,941.79
2022-09-15T15:40:46.942Z,941.79
2022-09-15T15:40:56.940Z,941.79
2022-09-15T15:41:06.942Z,941.79
2022-09-15T15:41:16.944Z,941.80
2022-09-15T15:41:26.949Z,941.80
2022-09-15T15:41:36.972Z,941.81
2022-09-15T15:41:56.948Z,941.81
2022-09-15T15:42:06.949Z,941.80
2022-09-15T15:42:16.955Z,941.80
2022-09-15T15:42:26.949Z,941.81
2022-09-15T15:42:36.957Z,941.80
2022-09-15T15:42:46.948Z,941.80
2022-09-15T15:42:59.467Z,941.80
2022-09-15T15:43:06.953Z,941.80
2022-09-15T15:43:16.952Z,941.80
2022-09-15T15:43:26.957Z,941.79
2022-09-15T15:43:36.953Z,941.79
2022-09-15T15:43:46.958Z,941.79
2022-09-15T15:43:56.954Z,941.79
2022-09-15T15:44:06.955Z,941.79
2022-09-15T15:44:16.956Z,941.79
2022-09-15T15:44:26.963Z,941.78
2022-09-15T15:44:36.964Z,941.78
2022-09-15T15:44:46.960Z,941.78
2022-09-15T15:44:56.969Z,941.78
2022-09-15T15:45:06.964Z,941.78
2022-09-15T15:45:16.970Z,941.77
2022-09-15T15:45:27.033Z,941.77
2022-09-15T15:45:36.990Z,941.78
2022-09-15T15:45:47.017Z,941.79
2022-09-15T15:45:57.056Z,941.80
2022-09-15T15:46:07.008Z,941.80
2022-09-15T15:46:17.020Z,941.79
2022-09-15T15:46:26.972Z,941.79
2022-09-15T15:46:36.972Z,941.79
2022-09-15T15:46:46.975Z,941.79
2022-09-15T15:46:56.973Z,941.79
2022-09-15T15:47:06.982Z,941.78
2022-09-15T15:47:16.975Z,941.78
2022-09-15T15:47:26.981Z,941.78
2022-09-15T15:47:36.980Z,941.78
2022-09-15T15:47:46.981Z,941.77
2022-09-15T15:47:56.982Z,941.78
2022-09-15T15:48:06.985Z,941.77
2022-09-15T15:48:16.985Z,941.77
2022-09-15T15:48:26.985Z,941.77
2022-09-15T15:48:38.201Z,941.77
2022-09-15T15:48:46.986Z,941.77
2022-09-15T15:48:56.990Z,941.77
2022-09-15T15:49:06.989Z,941.77
2022-09-15T15:49:16.988Z,941.77
2022-09-15T15:49:27.002Z,941.77
2022-09-15T15:49:46.195Z,941.76
2022-09-15T15:50:11.781Z,941.76
2022-09-15T15:50:12.318Z,941.76
2022-09-15T15:50:15.395Z,941.76
2022-09-15T15:50:17.995Z,941.76
2022-09-15T15:50:26.999Z,941.76
2022-09-15T15:50:36.998Z,941.76
2022-09-15T15:50:47.000Z,941.75
2022-09-15T15:50:57.002Z,941.75
2022-09-15T15:51:07.000Z,941.75
2022-09-15T15:51:17.000Z,941.75
2022-09-15T15:51:27.002Z,941.74
2022-09-15T15:51:37.005Z,941.74
2022-09-15T15:51:47.004Z,941.74
2022-09-15T15:51:57.005Z,941.74
2022-09-15T15:52:07.005Z,941.74
2022-09-15T15:52:17.004Z,941.73
2022-09-15T15:52:27.005Z,941.74
2022-09-15T15:52:37.006Z,941.73
2022-09-15T15:52:47.005Z,941.73
2022-09-15T15:52:56.989Z,941.73
2022-09-15T15:53:07.011Z,941.72
2022-09-15T15:53:17.007Z,941.72
2022-09-15T15:53:27.007Z,941.72
2022-09-15T15:53:37.013Z,941.72
2022-09-15T15:53:47.015Z,941.73
2022-09-15T15:53:57.012Z,941.73
2022-09-15T15:54:07.020Z,941.74
2022-09-15T15:54:17.019Z,941.74
2022-09-15T15:54:27.021Z,941.74
2022-09-15T15:54:37.020Z,941.74
2022-09-15T15:54:47.019Z,941.73
2022-09-15T15:54:57.019Z,941.73
2022-09-15T15:55:07.020Z,941.73
2022-09-15T15:55:17.019Z,941.73
2022-09-15T15:55:27.042Z,941.73
2022-09-15T15:55:37.036Z,941.74
2022-09-15T15:55:47.026Z,941.73
2022-09-15T15:55:57.022Z,941.73
2022-09-15T15:56:07.026Z,941.73
2022-09-15T15:56:17.027Z,941.73
2022-09-15T15:56:27.025Z,941.73
2022-09-15T15:56:37.976Z,941.73
2022-09-15T15:56:47.028Z,941.73
2022-09-15T15:56:57.030Z,941.73
2022-09-15T15:57:07.027Z,941.73
2022-09-15T15:57:17.029Z,941.73
2022-09-15T15:57:27.032Z,941.73
2022-09-15T15:57:37.034Z,941.73
2022-09-15T15:57:47.029Z,941.74
2022-09-15T15:57:57.032Z,941.74
2022-09-15T15:58:07.032Z,941.74
2022-09-15T15:58:17.030Z,941.74
2022-09-15T15:58:27.032Z,941.74
2022-09-15T15:58:37.032Z,941.75
2022-09-15T15:58:47.033Z,941.75
2022-09-15T15:58:57.033Z,941.75
2022-09-15T15:59:07.034Z,941.76
2022-09-15T15:59:17.034Z,941.75
2022-09-15T15:59:27.038Z,941.75
2022-09-15T15:59:37.034Z,941.75
2022-09-15T15:59:47.036Z,941.77
2022-09-15T15:59:57.040Z,941.77
2022-09-15T16:00:07.037Z,941.76
2022-09-15T16:00:21.050Z,941.76
2022-09-15T16:00:27.043Z,941.76
2022-09-15T16:00:37.128Z,941.75
2022-09-15T16:00:47.083Z,941.75
2022-09-15T16:00:57.188Z,941.75
2022-09-15T16:01:07.124Z,941.75
2022-09-15T16:01:17.112Z,941.76
2022-09-15T16:01:27.045Z,941.76
2022-09-15T16:01:37.057Z,941.75
2022-09-15T16:01:47.077Z,941.76
2022-09-15T16:01:57.074Z,941.76
2022-09-15T16:02:07.153Z,941.76
2022-09-15T16:02:17.089Z,941.76
2022-09-15T16:02:27.135Z,941.76
2022-09-15T16:02:37.049Z,941.76
2022-09-15T16:02:47.050Z,941.77
2022-09-15T16:02:57.049Z,941.77
2022-09-15T16:03:07.051Z,941.76
2022-09-15T16:03:17.052Z,941.76
2022-09-15T16:03:27.054Z,941.76
2022-09-15T16:03:37.059Z,941.76
2022-09-15T16:03:47.057Z,941.76
2022-09-15T16:03:57.055Z,941.76
2022-09-15T16:04:07.057Z,941.77
2022-09-15T16:04:17.058Z,941.76
2022-09-15T16:04:27.071Z,941.76
2022-09-15T16:04:37.058Z,941.76
2022-09-15T16:04:47.061Z,941.75
2022-09-15T16:04:57.060Z,941.75
2022-09-15T16:05:07.063Z,941.74
2022-09-15T16:05:17.065Z,941.74
2022-09-15T16:05:27.067Z,941.74
2022-09-15T16:05:37.065Z,941.74
2022-09-15T16:05:47.067Z,941.74
2022-09-15T16:05:57.074Z,941.74
2022-09-15T16:06:07.066Z,941.74
2022-09-15T16:06:17.071Z,941.74
2022-09-15T16:06:27.071Z,941.74
2022-09-15T16:06:37.069Z,941.75
2022-09-15T16:06:47.071Z,941.75
2022-09-15T16:06:57.069Z,941.75
2022-09-15T16:07:07.072Z,941.75
2022-09-15T16:07:17.080Z,941.75
2022-09-15T16:07:31.103Z,941.76
2022-09-15T16:07:38.074Z,941.76
2022-09-15T16:07:47.073Z,941.76
2022-09-15T16:07:57.074Z,941.76
2022-09-15T16:08:07.073Z,941.77
2022-09-15T16:08:17.078Z,941.77
2022-09-15T16:08:27.078Z,941.77
2022-09-15T16:08:37.076Z,941.78
2022-09-15T16:08:47.076Z,941.78
2022-09-15T16:08:57.079Z,941.78
2022-09-15T16:09:07.079Z,941.79
2022-09-15T16:09:17.081Z,941.79
2022-09-15T16:09:27.095Z,941.79
2022-09-15T16:09:37.081Z,941.79
2022-09-15T16:09:47.096Z,941.79
2022-09-15T16:09:57.082Z,941.80
2022-09-15T16:10:07.103Z,941.80
2022-09-15T16:10:17.088Z,941.81
2022-09-15T16:10:27.084Z,941.81
2022-09-15T16:10:37.084Z,941.81
2022-09-15T16:10:47.086Z,941.80
2022-09-15T16:10:57.087Z,941.80
2022-09-15T16:11:07.089Z,941.80
2022-09-15T16:11:17.093Z,941.80
2022-09-15T16:11:27.088Z,941.80
2022-09-15T16:11:37.089Z,941.80
2022-09-15T16:11:47.213Z,941.80
2022-09-15T16:12:07.095Z,941.80
2022-09-15T16:12:17.093Z,941.80
2022-09-15T16:12:29.704Z,941.81
2022-09-15T16:12:37.095Z,941.81
2022-09-15T16:12:47.095Z,941.82
2022-09-15T16:12:57.099Z,941.82
2022-09-15T16:13:07.097Z,941.83
2022-09-15T16:13:17.098Z,941.83
2022-09-15T16:13:27.099Z,941.83
2022-09-15T16:13:37.102Z,941.83
2022-09-15T16:13:47.104Z,941.83
2022-09-15T16:13:57.102Z,941.84
2022-09-15T16:14:07.103Z,941.84
2022-09-15T16:14:17.107Z,941.84
2022-09-15T16:14:27.129Z,941.84
2022-09-15T16:14:37.105Z,941.85
2022-09-15T16:14:47.109Z,941.85
2022-09-15T16:14:57.108Z,941.85
2022-09-15T16:15:07.112Z,941.84
2022-09-15T16:15:17.111Z,941.85
2022-09-15T16:15:27.113Z,941.85
2022-09-15T16:15:37.112Z,941.85
2022-09-15T16:15:47.115Z,941.86
2022-09-15T16:15:57.130Z,941.85
2022-09-15T16:16:07.144Z,941.84